Date,TemperatureHighF,TemperatureAvgF,TemperatureLowF,DewpointHighF,DewpointAvgF,DewpointLowF,HumidityHigh,HumidityAvg,HumidityLow,PressureMaxIn,PressureMinIn,WindSpeedMaxMPH,WindSpeedAvgMPH,GustSpeedMaxMPH,PrecipitationSumIn
2013-1-1,16.9,8.0,1.6,9.8,0.3,-6.2,73,70,68,30.27,29.87,12,5,12,0.05
2013-1-2,27.7,15.2,1.6,21.8,8.3,-6.2,80,74,68,30.54,29.89,14,4,14,0.05
2013-1-3,15.3,9.0,1.6,8.5,2.0,-6.2,77,73,68,30.25,29.82,16,6,16,0.05
2013-1-4,28.0,18.8,10.8,20.9,12.3,3.6,79,75,71,29.88,29.74,17,4,17,0.00
2013-1-5,24.3,15.2,7.7,17.2,8.4,0.7,77,74,72,29.84,29.58,13,4,13,0.00
2013-1-6,21.9,14.4,9.1,15.3,8.0,2.6,78,75,71,29.96,29.69,21,6,21,0.00
2013-1-7,35.6,27.0,17.8,28.6,20.7,12.1,80,77,72,29.72,26.65,24,7,24,0.01
2013-1-8,36.1,26.4,15.4,29.5,20.0,8.7,80,76,73,29.75,29.43,17,6,17,0.00
2013-1-9,33.8,29.3,23.9,25.9,21.9,15.9,80,74,69,30.05,29.64,21,8,21,0.00
2013-1-10,40.6,33.7,25.5,32.2,26.5,18.4,79,74,66,30.02,29.47,21,10,21,0.20
2013-1-11,39.0,36.7,34.7,34.9,31.7,28.9,85,82,79,29.47,29.07,19,8,19,0.02
2013-1-12,36.5,13.9,2.7,32.4,7.4,-4.5,85,74,69,29.81,29.10,16,4,16,0.00
2013-1-13,10.4,4.8,-0.2,2.6,-2.3,-7.0,74,71,69,29.97,29.78,13,5,13,0.00
2013-1-14,13.5,7.5,2.7,5.7,0.5,-4.0,75,72,70,30.14,29.96,10,4,10,0.00
2013-1-15,28.6,16.6,5.4,20.7,9.6,-1.3,78,73,69,30.03,29.55,19,6,19,0.00
2013-1-16,36.3,25.1,8.1,30.7,18.5,-0.2,81,75,68,29.98,29.39,122,9,122,0.00
2013-1-17,19.4,12.0,3.7,10.4,3.8,-4.3,71,69,67,30.11,29.98,11,4,11,0.00
2013-1-18,41.4,29.5,17.4,33.5,22.4,9.7,79,74,71,30.01,29.44,17,7,17,0.00
2013-1-19,39.0,21.5,0.9,31.9,14.2,-7.4,79,73,61,29.99,29.43,34,9,34,0.01
2013-1-20,9.3,2.3,-4.0,-0.1,-6.2,-12.6,68,66,64,30.14,29.99,22,10,22,0.00
2013-1-21,-3.6,-7.5,-11.9,-12.3,-16.3,-20.5,66,64,62,30.08,29.96,20,8,20,0.00
2013-1-22,15.4,-2.9,-11.9,-2.4,-11.4,-20.2,68,66,64,30.12,29.88,10,3,10,0.01
2013-1-23,15.1,6.5,-5.3,7.3,-2.9,-16.1,72,64,58,30.29,29.82,32,9,32,0.00
2013-1-24,14.0,3.1,-7.1,3.8,-7.2,-17.6,63,61,58,30.34,29.81,21,8,21,0.00
2013-1-25,18.0,11.3,1.4,10.2,1.9,-7.7,71,65,63,29.97,29.59,27,10,27,0.00
2013-1-26,24.4,12.3,-1.3,13.4,2.9,-9.9,70,65,61,30.00,29.74,17,6,17,0.00
2013-1-27,34.5,29.3,21.4,27.6,21.2,11.5,78,72,65,29.74,29.44,17,6,17,0.01
2013-1-28,41.9,34.2,31.3,34.1,28.4,24.9,84,79,77,29.53,29.27,14,4,14,0.21
2013-1-29,37.2,32.4,27.0,32.3,27.4,21.0,85,82,77,29.44,29.20,24,9,24,0.01
2013-1-30,27.0,16.8,7.0,21.0,10.0,0.0,78,74,70,29.43,29.28,28,14,28,0.00
2013-1-31,7.2,-0.6,-9.0,0.1,-8.5,-17.6,72,68,64,29.94,29.43,27,13,27,0.00
2013-2-1,6.1,-2.4,-12.3,-1.6,-10.3,-20.2,72,67,65,29.99,29.68,17,5,17,0.00
2013-2-2,16.5,7.7,1.0,8.5,0.3,-5.8,74,71,66,29.84,29.62,11,5,11,0.00
2013-2-3,19.9,11.4,3.0,11.6,4.0,-3.8,74,71,67,29.77,29.61,19,6,19,0.00
2013-2-4,21.9,11.5,2.8,13.2,3.7,-4.2,74,70,63,29.71,29.38,16,4,16,0.00
2013-2-5,32.0,22.0,4.6,24.4,14.6,-3.4,79,73,68,29.75,29.33,19,7,19,0.00
2013-2-6,31.3,17.6,3.6,23.2,10.3,-4.2,76,72,69,29.79,29.48,16,6,16,0.00
2013-2-7,27.9,24.9,19.0,22.5,19.3,12.8,82,79,76,29.91,29.64,21,10,21,0.00
2013-2-8,31.6,24.1,14.0,24.3,17.6,7.9,81,76,72,30.01,29.83,21,6,21,0.00
2013-2-9,34.2,29.5,25.5,27.8,23.9,19.5,81,79,77,29.85,29.56,28,11,28,0.00
2013-2-10,35.2,29.3,12.6,31.3,24.3,4.1,87,81,68,30.48,29.42,24,8,24,0.00
2013-2-11,28.9,24.1,14.5,25.6,18.4,8.0,87,79,72,30.45,29.76,24,12,24,0.00
2013-2-12,35.1,23.7,14.4,27.3,17.0,8.0,81,75,70,30.48,30.19,18,5,18,0.01
2013-2-13,41.9,29.9,18.3,34.2,23.0,11.8,80,75,72,30.22,29.95,13,3,13,0.21
2013-2-14,33.6,25.5,9.0,28.1,17.8,-0.8,83,72,58,30.61,29.98,21,9,21,0.00
2013-2-15,26.6,9.6,3.2,7.6,0.7,-22.5,71,67,63,30.69,30.61,14,5,14,0.00
2013-2-16,20.7,10.8,2.7,11.5,2.4,-5.4,73,68,64,30.66,30.48,8,3,8,0.00
2013-2-17,35.6,22.7,8.8,26.1,14.7,0.8,75,71,67,30.51,29.99,28,10,28,0.01
2013-2-18,34.0,21.8,4.5,28.2,14.4,-1.7,79,73,67,30.27,29.93,21,2,21,0.00
2013-2-19,4.5,0.4,-5.1,-1.3,-7.5,-13.7,76,68,63,30.79,30.26,11,0,11,0.00
2013-2-20,17.4,3.1,-9.8,7.7,-5.8,-18.1,70,65,62,30.88,30.77,0,0,0,0.00
2013-2-21,23.0,12.8,-0.2,12.7,3.6,-9.0,72,66,60,30.85,30.48,1,0,1,0.00
2013-2-22,34.7,24.4,19.6,25.9,17.1,11.0,79,73,66,30.48,30.23,1,0,1,0.00
2013-2-23,33.3,20.9,7.9,24.7,13.4,-0.3,77,72,66,30.38,30.25,1,0,1,0.00
2013-2-24,37.0,17.7,0.9,26.8,8.8,-7.1,75,68,63,30.51,30.38,1,0,1,0.01
2013-2-25,39.0,27.1,16.5,28.6,17.6,7.2,71,67,63,30.53,30.46,0,0,0,0.00
2013-2-26,35.4,23.6,10.6,26.8,15.8,2.0,77,71,65,30.50,30.31,0,0,0,0.00
2013-2-27,40.5,31.0,24.6,28.4,22.2,15.4,78,70,60,30.47,30.30,0,0,0,0.00
2013-2-28,32.4,28.2,22.3,22.1,19.3,13.2,73,69,66,30.64,30.46,1,0,1,0.00
2013-3-1,30.6,24.1,15.1,19.7,14.6,5.2,71,67,62,30.76,30.64,1,0,1,0.00
2013-3-2,30.6,18.8,3.4,19.5,9.0,-5.9,72,65,60,30.78,30.56,0,0,0,0.00
2013-3-3,36.0,27.2,19.4,20.4,14.9,8.9,65,60,51,30.56,30.37,1,0,1,0.00
2013-3-4,29.7,26.0,23.4,21.2,17.3,14.6,77,69,58,30.41,30.26,1,0,1,0.00
2013-3-5,34.7,27.0,21.2,26.1,20.0,14.6,80,75,66,30.70,30.36,1,0,1,0.00
2013-3-6,36.0,24.9,10.0,25.4,16.3,0.4,76,70,62,30.82,30.68,0,0,0,0.00
2013-3-7,38.5,20.0,2.3,26.8,10.2,-6.8,73,65,59,30.79,30.61,0,0,0,0.02
2013-3-8,43.3,29.7,17.1,32.2,20.6,8.2,73,69,63,30.74,30.47,0,0,0,0.08
2013-3-9,40.3,36.3,34.3,34.6,30.4,26.6,83,79,72,30.48,30.09,1,0,1,0.48
2013-3-10,34.3,32.4,27.9,29.8,26.7,21.3,84,79,74,30.38,30.19,0,0,0,0.01
2013-3-11,34.2,27.5,21.4,25.2,20.2,13.5,78,74,67,30.31,30.11,1,0,1,0.00
2013-3-12,29.8,24.1,18.5,20.3,15.6,10.2,74,70,63,30.31,29.92,0,0,0,0.00
2013-3-13,32.4,21.1,10.0,22.3,12.7,2.9,74,69,64,30.34,30.21,0,0,0,0.00
2013-3-14,45.9,33.2,25.2,34.6,24.2,16.8,78,69,61,30.22,30.00,1,0,1,0.01
2013-3-15,36.3,31.7,25.2,30.1,25.0,18.2,81,76,66,30.02,29.77,0,0,0,0.01
2013-3-16,25.2,20.4,10.2,20.2,13.2,1.2,82,73,64,30.21,29.88,2,0,2,0.00
2013-3-17,31.8,18.6,5.0,19.9,8.9,-3.0,71,66,58,30.25,29.81,0,0,0,0.00
2013-3-18,30.9,22.9,9.9,24.9,15.0,2.7,78,71,63,29.84,29.57,1,0,1,0.00
2013-3-19,22.6,12.0,4.8,11.5,2.5,-2.4,73,65,54,30.22,29.84,0,0,0,0.00
2013-3-20,19.8,11.5,4.8,7.1,0.5,-4.6,65,61,55,30.25,30.06,1,0,1,0.00
2013-3-21,27.9,14.9,0.3,14.8,3.2,-10.0,67,59,54,30.14,29.99,0,0,0,0.00
2013-3-22,37.2,21.0,3.0,23.1,8.7,-7.8,65,59,53,30.10,29.98,2,0,2,0.00
2013-3-23,41.9,27.2,13.1,26.6,15.0,2.3,65,60,52,30.17,30.08,1,0,1,0.00
2013-3-24,36.7,30.1,25.3,25.8,20.1,15.8,73,66,58,30.11,29.98,0,0,0,0.01
2013-3-25,37.0,29.7,23.4,23.1,18.8,14.9,74,64,53,30.26,30.06,0,0,0,0.00
2013-3-26,37.8,27.5,18.0,25.4,17.3,9.4,70,65,59,31.04,30.26,0,0,0,0.00
2013-3-27,45.1,30.1,14.9,30.1,17.9,5.3,71,60,52,30.36,30.30,0,0,0,0.00
2013-3-28,47.5,33.7,18.5,32.5,21.2,7.0,68,60,55,30.36,30.26,0,0,0,0.00
2013-3-29,52.7,41.5,32.7,40.4,31.1,22.6,71,66,62,30.31,30.03,14,2,14,0.00
2013-3-30,50.0,42.8,34.0,41.5,34.7,25.1,77,73,61,30.33,29.84,15,6,15,0.13
2013-3-31,37.8,32.8,22.5,30.1,24.1,12.9,81,70,58,30.15,29.85,31,12,31,0.00
2013-4-1,33.4,24.5,16.7,20.6,14.5,8.7,71,65,58,30.30,30.15,22,10,22,0.00
2013-4-2,36.1,27.4,18.9,21.9,16.2,10.8,73,63,52,30.39,30.28,18,6,18,0.00
2013-4-3,49.1,34.5,19.0,34.9,22.5,8.0,68,61,57,30.42,30.05,32,10,32,0.00
2013-4-4,49.3,41.3,31.8,34.5,29.5,20.1,72,63,52,30.21,30.03,26,10,26,0.00
2013-4-5,43.3,33.8,25.9,29.9,24.2,16.5,80,68,55,30.28,29.87,26,9,26,0.00
2013-4-6,55.2,42.6,35.6,45.3,34.9,29.4,79,74,66,29.87,29.54,24,11,24,0.25
2013-4-7,50.5,41.7,34.3,41.0,34.3,28.1,79,75,68,29.96,29.77,16,5,16,0.21
2013-4-8,47.8,42.8,40.1,42.3,37.7,34.9,84,82,77,30.07,29.72,21,8,21,0.64
2013-4-9,41.7,37.4,32.5,35.1,30.5,26.5,83,76,65,30.19,30.02,34,13,34,0.51
2013-4-10,37.0,33.9,30.6,28.3,26.6,24.5,83,75,65,30.22,29.90,28,12,28,0.05
2013-4-11,38.5,33.7,29.1,32.5,28.3,24.6,87,80,72,29.93,29.67,30,12,30,0.40
2013-4-12,44.1,34.1,27.3,36.6,27.6,23.2,85,77,65,29.89,29.70,16,6,16,0.01
2013-4-13,47.3,36.5,28.4,34.9,26.8,20.2,79,68,56,30.32,29.88,11,4,11,0.01
2013-4-14,36.1,33.2,30.4,31.8,26.7,22.1,84,77,67,29.95,29.48,29,12,29,0.31
2013-4-15,44.6,37.1,31.6,35.1,29.3,25.4,82,73,65,29.99,29.51,34,12,34,0.01
2013-4-16,44.2,37.7,32.0,32.2,28.2,24.8,75,69,61,30.34,29.99,17,7,17,0.00
2013-4-17,41.0,36.7,34.2,31.6,28.5,24.7,82,72,67,30.35,29.90,24,9,24,0.12
2013-4-18,34.0,32.5,30.6,30.0,28.6,27.4,89,85,82,29.95,29.53,34,16,34,0.00
2013-4-19,41.9,33.6,27.9,30.6,26.3,18.2,89,75,59,30.03,29.54,35,16,35,0.01
2013-4-20,46.6,33.4,18.0,31.0,21.4,9.7,74,62,49,30.34,30.03,11,4,11,0.00
2013-4-21,54.5,42.6,33.6,43.2,33.9,20.4,77,71,58,30.35,30.04,30,11,30,0.15
2013-4-22,42.3,36.5,31.6,32.5,29.6,27.6,85,76,65,30.25,30.15,27,11,27,0.01
2013-4-23,41.0,33.8,24.6,30.5,25.6,19.7,85,72,59,30.24,30.08,20,8,20,0.02
2013-4-24,52.0,37.7,27.0,36.9,27.8,18.0,76,67,52,30.12,29.90,31,7,31,0.02
2013-4-25,54.5,41.8,31.1,40.3,32.0,24.1,77,68,56,30.18,30.02,21,8,21,0.01
2013-4-26,70.9,56.7,44.1,52.7,42.4,32.7,71,59,46,30.13,29.95,26,9,26,0.00
2013-4-27,75.9,59.1,38.8,50.6,40.3,25.3,64,50,38,30.14,29.88,27,4,27,0.00
2013-4-28,82.0,65.9,51.6,57.6,48.1,39.8,68,54,37,29.88,29.65,28,11,28,0.06
2013-4-29,77.4,62.1,46.9,54.4,45.5,36.6,68,55,40,29.85,29.51,16,7,16,0.00
2013-4-30,67.6,63.7,54.7,57.3,46.9,35.6,72,55,35,29.98,29.40,21,10,21,0.00
2013-5-1,54.9,42.3,35.1,36.6,30.3,26.4,72,63,50,30.48,29.98,23,8,23,0.19
2013-5-2,47.5,40.1,34.3,30.4,26.9,23.2,69,59,48,30.57,30.42,27,14,27,0.00
2013-5-3,41.2,35.9,31.8,30.8,26.6,21.8,79,69,60,30.47,30.14,31,13,31,0.04
2013-5-4,45.0,38.7,33.4,38.8,33.3,28.0,83,81,79,30.20,30.13,22,10,22,0.06
2013-5-5,66.0,50.7,38.7,54.4,42.3,33.3,82,73,58,30.21,29.63,16,6,16,0.34
2013-5-6,76.1,61.4,47.8,59.5,49.0,39.3,76,64,51,29.89,29.76,12,3,12,0.00
2013-5-7,80.4,66.2,50.9,58.7,49.1,38.4,68,55,42,29.85,29.69,16,3,16,0.00
2013-5-8,76.3,65.8,59.7,56.4,50.1,42.6,75,57,47,29.79,29.72,19,5,19,0.33
2013-5-9,62.2,54.7,44.4,54.2,46.6,32.4,79,74,62,29.91,29.73,27,12,27,0.09
2013-5-10,69.1,52.6,36.9,45.2,35.1,26.6,69,53,34,29.92,29.64,19,7,19,0.00
2013-5-11,58.3,48.1,40.6,40.7,28.8,19.9,65,48,36,29.95,29.66,41,16,41,0.01
2013-5-12,61.5,47.6,32.9,28.4,23.6,14.9,54,40,27,30.03,29.85,24,6,24,0.00
2013-5-13,78.6,58.5,38.8,53.3,36.4,19.2,50,44,39,29.88,29.40,33,10,33,0.00
2013-5-14,95.9,74.4,54.0,63.6,47.9,36.3,57,41,20,29.46,29.16,31,9,31,0.00
2013-5-15,82.0,68.7,54.9,54.7,47.2,36.7,57,47,38,29.69,29.44,26,7,26,0.00
2013-5-16,65.8,65.8,65.8,44.5,44.5,44.5,46,46,46,29.59,29.58,4,4,4,0.00
2013-5-19,72.7,68.5,65.7,64.2,60.8,58.4,80,76,74,29.63,29.56,11,4,11,1.02
2013-5-20,73.0,67.3,62.8,64.5,59.8,54.8,85,77,69,29.58,29.50,27,9,27,0.11
2013-5-21,63.0,56.8,48.0,56.3,51.9,44.0,87,84,75,29.73,29.51,19,8,19,0.15
2013-5-22,52.9,48.8,44.8,48.6,44.9,41.4,89,86,78,30.00,29.71,25,12,25,0.15
2013-5-23,64.4,53.4,43.7,44.6,40.7,34.2,81,63,45,30.34,30.00,30,9,30,0.01
2013-5-24,71.6,58.1,42.8,50.7,42.3,28.4,70,56,46,30.37,30.14,22,8,22,0.22
2013-5-25,62.4,57.1,54.5,51.7,48.0,45.3,75,72,67,30.24,30.19,30,13,30,0.00
2013-5-26,59.0,55.4,51.8,49.3,45.3,42.0,73,69,64,30.20,30.01,30,14,30,0.00
2013-5-27,65.7,58.8,55.0,55.6,51.3,47.7,82,76,69,30.03,29.83,24,10,24,0.00
2013-5-28,62.6,58.3,54.1,56.7,53.0,49.4,86,82,81,29.83,29.70,16,4,16,0.02
2013-5-29,79.0,67.1,53.6,70.0,60.6,47.9,87,80,75,29.82,29.62,20,8,20,0.12
2013-5-30,77.4,70.1,65.5,67.8,63.2,59.3,86,79,69,29.65,29.50,30,13,30,0.11
2013-5-31,75.9,68.4,61.7,61.1,57.4,50.5,82,69,56,29.55,29.50,33,11,33,0.01
2013-6-1,73.8,62.2,52.3,60.9,51.4,42.9,73,68,61,29.96,29.54,29,9,29,0.02
2013-6-2,69.1,57.9,46.9,51.1,44.4,38.9,75,62,48,30.09,29.95,18,7,18,0.00
2013-6-3,72.5,62.2,47.3,54.2,45.9,34.7,69,55,46,30.06,29.92,18,5,18,0.00
2013-6-4,63.5,60.7,56.1,52.8,49.7,45.9,76,67,55,30.05,29.95,23,10,23,0.00
2013-6-5,69.3,59.6,55.2,61.8,52.0,48.1,80,76,69,30.04,29.93,18,7,18,0.01
2013-6-6,60.1,55.2,52.0,53.0,49.1,45.6,84,80,75,30.04,29.96,17,7,17,0.00
2013-6-7,66.6,59.6,53.8,56.8,51.9,48.1,82,76,68,30.05,29.90,8,3,8,0.00
2013-6-8,73.4,65.1,54.9,59.2,53.9,46.0,77,67,58,29.91,29.86,20,6,20,0.00
2013-6-9,69.1,62.5,58.5,62.3,56.0,52.7,84,79,67,29.88,29.75,34,10,34,0.50
2013-6-10,77.7,67.7,61.5,67.6,60.4,54.6,85,78,67,29.85,29.79,10,3,10,0.00
2013-6-11,78.3,69.0,59.2,69.8,61.0,51.1,82,76,71,29.90,29.78,12,3,12,0.01
2013-6-12,73.6,66.1,59.7,65.6,58.9,51.3,87,78,70,29.93,29.77,18,7,18,1.45
2013-6-13,80.1,69.2,56.1,62.2,56.4,48.0,80,64,52,30.08,29.92,16,5,16,0.00
2013-6-14,83.8,72.3,60.4,66.9,58.7,48.7,70,62,55,30.06,29.85,27,10,27,0.00
2013-6-15,81.3,75.2,66.2,70.2,64.4,54.9,76,69,63,29.91,29.83,20,4,20,0.46
2013-6-16,87.8,72.1,57.6,64.9,56.7,48.4,78,60,37,29.92,29.83,35,4,35,0.05
2013-6-17,83.8,73.1,61.9,61.6,57.2,49.3,70,58,45,29.99,29.85,22,6,22,0.00
2013-6-18,81.9,69.4,57.4,64.8,55.9,47.3,73,63,50,30.07,29.99,15,6,15,0.07
2013-6-19,88.7,76.9,63.1,68.9,60.6,50.8,70,58,46,30.03,29.90,22,7,22,0.00
2013-6-20,93.7,82.9,72.3,72.6,65.7,57.6,67,57,46,29.96,29.83,27,10,27,0.00
2013-6-21,84.7,75.4,65.7,71.1,64.6,58.3,80,70,55,30.02,29.73,37,10,42,1.61
2013-6-22,82.2,73.4,66.6,71.8,65.7,60.4,82,77,69,29.97,29.80,23,5,24,0.66
2013-6-23,85.5,77.9,68.0,72.7,67.8,60.4,86,72,60,29.87,29.63,27,7,27,1.55
2013-6-24,87.8,76.2,65.5,73.4,65.7,56.0,78,70,64,29.88,29.77,18,5,18,0.00
2013-6-25,90.0,79.0,67.5,76.7,68.9,59.3,80,71,64,29.81,29.68,19,7,19,0.00
2013-6-26,88.2,81.0,74.8,76.7,69.5,62.3,80,68,55,29.80,29.63,20,5,20,0.00
2013-6-27,86.7,79.5,72.1,67.6,62.6,56.8,72,57,42,29.81,29.77,27,7,27,0.00
2013-6-28,80.2,74.0,68.5,64.1,59.8,55.1,70,62,53,29.81,29.74,34,11,34,0.09
2013-6-29,78.3,71.0,64.9,63.0,59.2,51.9,81,67,55,29.96,29.73,27,10,27,0.02
2013-6-30,82.6,71.5,59.5,60.5,55.1,47.8,71,57,44,30.09,29.96,18,5,18,0.00
2013-7-1,86.0,75.3,62.1,65.5,57.3,48.0,66,54,43,30.16,30.09,12,3,14,0.00
2013-7-2,86.0,75.2,63.1,62.7,55.6,48.8,64,51,42,30.14,30.01,14,3,14,0.00
2013-7-3,89.4,76.3,62.2,64.2,56.8,47.9,66,52,40,30.04,29.91,13,2,13,0.00
2013-7-4,92.5,79.4,66.0,68.3,59.8,50.4,64,52,40,29.92,29.81,21,7,21,0.00
2013-7-5,93.0,81.6,71.4,70.5,63.1,55.6,62,54,48,29.85,29.75,27,11,27,0.00
2013-7-6,92.5,82.5,73.6,73.9,66.6,59.7,64,59,54,29.83,29.75,21,7,21,0.00
2013-7-7,97.5,83.9,75.2,77.9,69.6,63.5,69,62,51,29.86,29.77,20,5,20,0.28
2013-7-8,90.9,78.7,70.0,76.4,67.9,61.0,78,70,60,29.97,29.85,11,4,11,0.09
2013-7-9,87.6,79.9,70.9,74.1,69.1,62.8,81,70,62,29.91,29.68,42,7,42,0.60
2013-7-10,82.8,73.2,62.4,63.1,59.3,36.8,77,63,49,30.02,29.90,23,7,23,0.00
2013-7-11,88.7,76.4,61.5,68.2,60.3,49.8,71,58,47,30.07,29.92,17,5,17,0.00
2013-7-12,91.8,80.6,70.2,70.2,63.4,56.1,63,56,48,29.95,29.83,33,14,33,0.00
2013-7-13,81.3,75.5,70.0,70.6,65.1,59.5,78,70,56,30.02,29.85,30,11,30,1.18
2013-7-14,89.1,77.9,70.0,74.1,66.6,59.8,78,69,58,30.13,29.98,17,7,17,0.02
2013-7-15,91.8,82.0,70.2,74.5,68.3,59.5,73,64,55,30.18,30.10,16,5,16,0.00
2013-7-16,95.2,85.9,76.1,78.3,72.2,65.9,74,64,55,30.17,30.11,17,5,17,0.00
2013-7-17,94.6,86.0,74.1,77.3,72.3,64.2,75,64,56,30.19,30.06,13,4,13,0.00
2013-7-18,96.4,86.1,76.1,77.8,72.3,67.2,77,64,52,30.06,29.72,27,8,27,0.00
2013-7-19,85.4,79.8,71.0,68.7,64.4,56.5,71,60,49,29.87,29.69,23,7,23,0.00
2013-7-20,80.0,70.9,65.4,66.7,59.5,53.8,74,67,61,29.90,29.82,13,3,13,0.02
2013-7-27,65.9,57.6,49.4,50.1,45.9,41.4,77,65,55,30.03,29.88,17,8,17,0.00
2013-7-28,73.5,61.5,48.3,57.0,48.2,38.6,75,62,52,30.00,29.91,13,5,13,0.00
2013-7-29,81.2,68.1,52.4,62.4,53.7,41.2,71,60,51,30.06,29.99,12,4,12,0.01
2013-7-30,75.1,69.0,64.3,65.3,58.8,53.1,75,70,60,30.03,29.98,7,2,7,0.20
2013-7-31,79.2,68.8,59.8,68.4,58.5,49.3,82,70,53,30.01,29.93,14,3,14,0.00
2013-8-1,85.4,70.6,54.4,65.8,56.0,44.2,72,60,51,29.98,29.80,8,2,8,0.00
2013-8-2,78.2,71.0,59.1,59.8,53.9,46.6,69,55,49,29.98,29.79,13,4,13,0.00
2013-8-3,79.6,67.7,54.9,59.3,51.2,42.3,68,56,44,30.13,29.98,18,3,18,0.00
2013-8-4,76.4,65.3,53.5,62.5,51.5,39.7,67,61,53,30.16,29.92,12,3,12,0.00
2013-8-5,82.7,71.1,62.5,70.3,60.7,52.5,78,70,61,29.96,29.72,15,4,15,0.87
2013-8-6,86.1,70.0,57.6,71.8,59.6,48.9,77,70,59,29.78,29.60,26,5,26,0.02
2013-8-7,76.2,66.8,60.2,58.9,54.8,48.4,80,66,53,29.95,29.72,18,5,18,0.01
2013-8-8,78.0,66.1,56.6,64.1,54.3,44.9,73,66,60,29.98,29.90,11,2,11,0.04
2013-8-9,75.8,66.7,56.2,59.6,54.0,47.8,77,64,52,30.05,29.92,21,5,21,0.00
2013-8-10,79.8,69.7,61.4,61.0,54.8,49.5,69,59,51,30.11,29.99,8,2,8,0.00
2013-8-11,83.2,72.9,65.7,69.5,59.9,52.9,72,64,59,30.01,29.91,8,3,9,0.00
2013-8-12,79.1,70.0,59.8,60.8,56.5,50.4,77,63,51,29.99,29.92,19,5,19,0.00
2013-8-13,76.7,66.5,56.6,56.2,50.9,43.4,73,58,44,30.11,29.98,15,4,15,0.00
2013-8-14,80.1,66.7,53.5,59.8,50.4,41.0,68,56,46,30.11,30.01,11,3,11,0.00
2013-8-15,80.7,68.1,56.2,63.2,53.3,42.9,70,60,52,30.03,29.61,13,3,13,0.00
2013-8-16,80.9,69.5,56.9,63.8,55.3,45.5,72,61,51,30.11,29.66,15,3,15,0.00
2013-8-17,83.9,69.5,56.4,64.7,54.9,44.9,71,60,51,30.10,30.00,21,6,21,0.00
2013-8-18,84.3,71.1,58.4,64.2,55.8,46.3,70,59,50,30.04,29.90,23,6,23,0.00
2013-8-19,88.4,76.5,66.3,73.2,63.8,53.4,73,65,59,29.94,29.79,18,7,18,0.00
2013-8-20,89.9,79.6,69.7,76.3,68.4,60.5,76,69,63,29.82,29.75,21,7,21,0.00
2013-8-21,87.5,79.2,71.7,77.2,70.1,61.9,80,74,68,29.90,29.73,11,4,11,0.00
2013-8-22,85.4,74.4,65.2,62.6,57.0,49.3,70,55,43,30.02,29.91,22,6,22,0.00
2013-8-23,87.3,74.1,61.4,70.3,59.1,46.2,66,60,53,30.04,29.93,20,6,20,0.00
2013-8-24,89.3,79.3,70.1,74.9,68.2,60.6,77,69,60,29.95,29.81,31,12,31,0.00
2013-8-25,94.4,84.1,74.9,79.4,72.8,67.4,79,69,60,29.89,29.82,27,9,27,0.00
2013-8-26,95.1,84.7,75.1,80.1,73.6,67.1,79,70,60,29.87,29.72,19,6,19,0.00
2013-8-27,92.6,83.6,75.5,80.4,73.1,66.6,77,71,66,29.81,29.68,14,4,14,0.00
2013-8-28,89.9,79.9,69.7,77.2,70.2,62.2,83,73,62,29.90,29.80,12,4,12,0.00
2013-8-29,92.7,82.4,75.3,80.8,72.3,66.7,84,72,59,29.88,29.73,16,6,16,0.00
2013-8-30,81.8,75.8,69.5,68.5,65.7,60.3,81,71,62,29.82,29.71,21,6,21,0.00
2013-8-31,86.6,73.4,62.3,74.6,64.4,55.7,83,74,62,29.78,29.61,26,4,26,0.07
2013-9-1,74.0,67.8,59.8,62.2,58.7,50.8,82,73,63,29.88,29.62,23,7,23,0.01
2013-9-2,67.7,59.0,51.2,56.0,49.8,43.9,81,72,64,29.99,29.88,14,4,14,0.00
2013-9-3,79.1,62.8,47.7,64.5,52.8,40.0,82,70,59,29.98,29.88,11,2,11,0.00
2013-9-4,84.3,71.5,59.1,70.2,60.5,50.4,80,69,59,30.04,29.89,11,3,14,0.00
2013-9-5,85.5,73.7,63.6,70.1,61.7,53.1,71,66,59,30.09,29.97,15,6,15,0.00
2013-9-6,90.2,78.8,70.6,72.8,67.6,62.7,82,69,57,29.97,29.74,24,8,24,0.04
2013-9-7,89.1,79.2,69.0,72.9,66.8,60.0,79,66,53,29.89,29.74,21,6,21,0.00
2013-9-8,79.1,71.1,66.3,68.3,61.5,57.8,75,72,67,29.92,29.75,17,7,17,0.00
2013-9-9,89.9,77.8,68.4,76.8,68.5,62.0,84,74,59,29.76,29.49,21,7,21,0.01
2013-9-10,82.5,74.0,69.0,68.8,63.7,57.0,78,70,58,29.88,29.66,11,3,11,0.00
2013-9-11,82.8,71.7,62.5,65.0,57.0,49.0,77,61,43,29.95,29.87,21,4,21,0.00
2013-9-12,72.8,63.6,53.9,55.3,47.8,39.9,71,57,45,30.11,29.95,25,6,25,0.00
2013-9-13,71.3,58.3,46.1,52.3,43.5,33.8,68,58,49,30.15,29.95,11,3,11,0.00
2013-9-14,71.1,59.3,49.4,54.7,47.0,37.0,78,64,53,29.95,29.75,21,6,21,0.43
2013-9-15,66.8,59.1,51.3,55.9,51.6,42.8,84,76,67,30.19,29.74,26,7,26,0.25
2013-9-16,67.5,54.0,41.3,54.4,44.5,33.9,80,71,62,30.26,30.10,15,5,15,0.01
2013-9-17,67.0,57.5,48.8,56.5,48.7,39.5,80,73,65,30.11,29.79,24,10,24,0.00
2013-9-18,79.1,68.8,60.0,71.3,63.2,53.8,86,82,78,29.79,29.54,21,9,21,0.05
2013-9-19,76.0,70.0,61.6,68.9,63.8,52.7,87,81,73,29.70,29.50,25,4,25,0.02
2013-9-20,64.8,58.8,52.3,54.8,50.5,44.3,83,74,64,29.81,29.68,24,7,24,0.00
2013-9-21,65.3,54.9,46.6,52.7,45.5,39.4,80,71,63,29.86,29.77,14,3,14,0.00
2013-9-22,76.5,61.3,49.3,62.1,50.7,39.8,78,68,59,29.81,29.68,24,10,24,0.00
2013-9-23,76.1,64.1,54.3,61.0,52.5,46.0,76,66,56,29.78,29.70,29,12,29,0.00
2013-9-24,77.0,63.6,53.2,61.4,52.5,44.6,76,67,59,29.82,29.75,13,5,13,0.00
2013-9-25,74.8,63.8,52.3,59.6,51.5,42.3,75,64,55,29.82,29.70,20,7,20,0.00
2013-9-26,81.5,69.0,57.7,65.0,57.0,48.8,75,66,56,29.75,29.64,32,12,32,0.00
2013-9-27,84.7,72.8,67.3,68.2,61.9,56.7,79,69,59,29.74,29.62,30,12,30,0.04
2013-9-28,73.8,62.6,50.0,61.6,53.5,41.0,81,72,65,29.79,29.48,26,9,26,0.17
2013-9-29,75.4,59.2,44.2,57.8,47.5,37.5,80,66,50,29.81,29.61,24,8,24,0.00
2013-9-30,78.8,67.0,57.0,58.9,51.5,45.0,67,58,48,29.62,29.42,22,11,26,0.00
2013-10-1,74.1,65.6,51.1,53.5,46.3,32.6,68,51,34,29.84,29.43,23,7,23,0.00
2013-10-2,76.8,59.8,45.1,51.5,42.3,29.9,72,53,38,29.88,29.66,35,8,35,0.64
2013-10-3,61.0,58.5,55.0,55.2,52.4,49.4,85,80,67,29.78,29.67,20,7,20,0.20
2013-10-4,59.9,56.7,54.5,56.7,52.8,49.9,89,87,85,29.82,29.65,24,11,24,0.07
2013-10-5,60.1,54.1,43.2,56.5,49.0,37.1,89,83,76,29.69,29.58,21,6,21,0.15
2013-10-6,54.7,47.2,42.3,50.3,42.6,36.5,86,84,80,29.70,29.53,20,5,20,0.01
2013-10-7,64.9,52.1,42.3,54.4,45.1,38.1,88,77,65,29.81,29.67,10,3,10,0.01
2013-10-8,74.7,60.9,49.1,56.8,48.2,40.3,76,64,49,29.79,29.62,32,12,32,0.00
2013-10-9,75.0,64.6,58.1,58.3,50.5,44.1,69,60,51,29.86,29.74,20,9,20,0.00
2013-10-10,76.8,63.6,52.7,60.8,50.2,41.4,71,62,53,29.86,29.68,27,10,27,0.00
2013-10-11,73.0,65.4,58.3,60.1,54.3,48.2,75,67,59,29.69,29.42,40,16,40,0.08
2013-10-12,58.3,51.3,43.9,48.6,41.6,33.8,77,69,60,30.02,29.55,23,7,23,0.02
2013-10-13,59.4,47.1,35.1,45.9,35.7,26.6,76,65,54,30.26,30.02,10,2,10,0.00
2013-10-14,55.4,48.7,41.7,44.9,38.3,30.2,81,67,62,30.22,29.74,22,7,22,0.17
2013-10-15,54.5,50.7,45.5,49.2,46.2,41.4,88,84,81,29.75,29.48,28,11,28,0.17
2013-10-16,52.7,45.9,37.9,43.6,39.8,32.0,88,79,65,29.79,29.68,19,6,19,0.02
2013-10-17,55.8,45.8,37.9,46.2,39.5,32.3,84,79,68,29.71,29.60,19,5,19,0.02
2013-10-18,52.7,43.7,38.5,39.5,36.1,31.8,85,75,59,29.81,29.66,18,5,18,0.00
2013-10-19,48.4,39.6,31.6,40.1,33.0,25.6,83,77,70,29.66,29.51,20,5,20,0.02
2013-10-20,47.5,38.1,30.6,41.0,32.6,25.1,84,80,76,29.72,29.43,21,7,21,0.05
2013-10-21,40.8,34.7,26.6,30.3,24.4,18.2,77,66,58,29.79,29.72,26,7,26,0.00
2013-10-22,42.3,33.1,23.2,32.3,25.1,16.8,78,72,66,29.86,29.77,14,3,14,0.00
2013-10-23,39.2,34.4,28.9,29.5,25.1,22.0,78,69,58,29.93,29.82,20,4,20,0.00
2013-10-24,45.9,37.3,31.1,32.9,27.3,21.1,77,67,60,30.13,29.93,21,6,21,0.00
2013-10-25,58.3,41.6,24.3,44.9,32.8,18.9,82,71,60,30.14,29.60,25,7,25,0.00
2013-10-26,48.6,41.6,32.9,39.2,30.7,24.2,74,65,58,29.92,29.63,20,8,22,0.00
2013-10-27,57.2,40.3,28.4,41.1,30.7,22.0,79,69,56,29.95,29.62,25,7,25,0.00
2013-10-28,42.1,35.5,29.7,28.8,24.8,19.8,78,65,51,30.23,29.95,21,9,21,0.00
2013-10-29,41.2,36.7,30.4,34.0,29.0,21.1,83,73,68,30.21,29.88,14,6,14,0.04
2013-10-30,50.2,45.2,38.8,46.8,41.6,33.8,89,87,83,29.88,29.48,13,3,13,0.07
2013-10-31,48.7,42.6,39.7,45.3,38.8,35.1,88,86,83,29.49,29.22,14,5,14,0.04
2013-11-1,53.6,43.2,36.1,42.6,37.6,32.7,88,81,70,29.67,29.24,14,6,14,0.00
2013-11-2,49.8,40.0,33.1,40.8,33.0,27.6,82,76,68,29.89,29.67,10,4,14,0.00
2013-11-3,56.1,44.4,36.1,43.3,34.6,28.8,78,69,57,29.89,29.64,39,15,39,0.00
2013-11-4,49.1,44.5,34.0,42.2,35.6,26.6,77,71,64,29.95,29.60,29,9,35,0.08
2013-11-5,42.4,34.3,28.0,34.7,27.3,21.2,83,75,67,30.03,29.83,18,3,18,0.00
2013-11-6,39.0,31.8,26.6,29.5,25.7,20.1,84,78,72,29.96,29.84,11,2,11,0.28
2013-11-7,36.7,28.8,21.4,30.2,22.8,15.2,81,78,76,30.03,29.95,11,3,11,0.00
2013-11-8,42.8,34.5,23.7,36.4,27.8,18.2,82,76,68,29.99,29.39,28,9,28,0.00
2013-11-9,44.1,40.1,35.2,38.9,32.8,25.9,82,75,66,30.02,29.44,31,10,31,0.00
2013-11-10,41.4,37.3,33.1,32.9,29.4,25.1,76,73,70,30.13,29.89,19,5,19,0.00
2013-11-11,37.4,23.7,14.9,30.2,13.7,5.5,77,65,59,30.52,29.91,30,13,30,0.01
2013-11-12,28.6,19.3,11.1,17.6,10.0,3.0,72,67,61,30.57,30.21,14,5,14,0.00
2013-11-13,51.8,34.7,20.8,40.0,25.0,11.7,72,67,62,30.21,29.66,27,9,27,0.00
2013-11-14,52.2,40.0,32.9,42.6,31.5,24.9,75,71,67,29.66,29.54,14,4,14,0.00
2013-11-15,54.9,40.7,29.3,43.8,32.9,22.2,79,74,69,29.63,29.40,23,7,23,0.00
2013-11-16,51.3,44.4,40.1,46.9,38.9,32.8,85,81,72,29.41,29.02,17,8,17,0.07
2013-11-17,43.5,39.1,31.3,38.3,33.8,24.6,86,81,76,29.64,29.10,30,11,30,0.01
2013-11-18,35.6,29.4,22.6,25.8,21.5,14.8,77,72,67,30.03,29.64,27,9,27,0.00
2013-11-19,47.1,35.4,21.9,37.1,26.9,14.3,78,71,65,30.03,29.66,33,15,33,0.00
2013-11-20,46.8,42.9,38.5,34.6,32.3,29.6,72,66,62,29.81,29.64,31,14,31,0.00
2013-11-21,40.6,29.7,22.3,32.1,22.5,13.4,79,74,68,30.31,29.81,28,12,28,0.00
2013-11-22,34.9,21.8,10.9,20.7,11.9,0.7,74,65,52,30.43,30.22,26,9,26,0.00
2013-11-23,18.5,10.4,5.0,6.3,0.7,-3.9,71,64,57,30.62,30.42,22,7,22,0.00
2013-11-24,34.2,19.7,5.9,21.2,9.4,-3.9,68,64,59,30.47,29.75,27,12,27,0.00
2013-11-25,38.7,32.9,27.0,28.5,23.2,16.8,74,67,63,29.87,29.68,26,10,26,0.00
2013-11-26,30.2,20.1,11.7,20.6,8.3,1.2,67,59,54,30.16,29.86,30,14,30,0.00
2013-11-27,23.9,16.7,6.3,13.2,6.3,-3.7,68,63,61,30.17,29.83,21,6,21,0.00
2013-11-28,26.1,21.2,10.4,15.3,10.7,0.7,66,63,62,30.27,29.82,19,5,19,0.00
2013-11-29,33.8,22.1,8.8,21.8,12.5,-1.0,71,66,63,30.27,29.88,25,8,25,0.00
2013-11-30,42.3,30.9,22.6,32.5,22.0,14.7,75,69,64,29.95,29.79,13,5,13,0.00
2013-12-1,34.0,26.3,18.3,26.2,18.6,10.4,76,72,69,29.96,29.68,8,2,8,0.00
2013-12-2,38.5,33.7,28.0,32.0,27.8,21.0,83,79,74,29.68,29.33,19,8,19,0.09
2013-12-3,36.7,34.7,32.2,32.5,30.5,27.8,88,84,81,29.54,29.34,14,5,14,0.00
2013-12-4,32.4,27.3,10.6,29.2,23.6,5.4,88,86,79,29.53,29.25,28,8,28,0.00
2013-12-5,10.8,4.9,-2.7,5.6,-1.2,-9.3,79,75,71,30.11,29.50,24,9,24,0.00
2013-12-6,4.3,-3.7,-9.2,-2.8,-10.5,-16.4,75,72,69,30.40,30.11,12,4,12,0.00
2013-12-7,2.7,-6.4,-13.9,-5.1,-13.7,-20.9,73,69,67,30.47,30.30,12,3,12,0.00
2013-12-8,16.5,7.6,-6.0,9.7,1.0,-13.3,76,74,69,30.31,29.79,15,5,15,0.00
2013-12-9,10.4,-0.9,-6.7,4.1,-7.7,-14.8,75,72,67,29.87,29.59,21,7,21,0.00
2013-12-10,14.0,7.0,0.1,7.6,0.3,-6.1,79,73,70,30.05,29.51,30,9,30,0.00
2013-12-11,3.7,-3.7,-9.8,-4.0,-11.5,-17.2,71,68,64,30.32,30.03,18,6,18,0.00
2013-12-12,21.9,12.0,1.0,13.1,4.8,-6.3,75,72,70,30.04,29.88,14,3,14,0.00
2013-12-13,16.2,12.4,9.3,9.4,5.8,3.4,76,74,71,30.03,29.86,21,10,21,0.00
2013-12-14,17.4,9.1,-1.5,10.9,2.5,-9.0,77,74,70,30.03,29.85,20,7,20,0.00
2013-12-15,5.0,1.0,-2.2,-3.1,-7.0,-9.6,71,68,65,29.91,29.85,15,7,15,0.00
2013-12-16,24.1,11.6,2.8,19.2,4.4,-5.2,82,72,68,29.86,29.66,20,6,20,0.00
2013-12-17,31.5,22.3,7.7,25.7,15.2,-0.1,82,73,67,29.86,29.64,32,10,32,0.01
2013-12-18,35.2,23.2,6.4,27.8,16.3,-1.2,77,75,70,29.82,29.39,19,6,19,0.00
2013-12-19,26.6,16.9,13.6,20.4,10.3,6.4,78,75,70,29.82,29.56,24,12,24,0.00
2013-12-20,20.8,15.0,9.9,14.8,9.3,4.2,79,77,75,29.78,29.60,20,5,20,0.00
2013-12-21,22.8,17.7,15.4,16.1,11.6,9.6,78,76,73,29.75,29.61,17,6,17,0.00
2013-12-22,17.8,11.4,0.5,11.4,5.3,-6.0,79,76,72,30.01,29.70,19,9,19,0.00
2013-12-23,0.5,-4.9,-12.1,-6.0,-12.2,-20.2,73,69,66,30.26,30.00,20,8,20,0.00
2013-12-24,11.3,-1.3,-15.9,3.8,-8.7,-23.8,74,69,65,30.23,29.85,22,8,22,0.00
2013-12-25,29.3,17.3,10.2,23.7,10.7,3.7,81,75,70,29.90,29.79,24,6,24,0.00
2013-12-26,30.7,20.3,8.8,24.2,14.1,2.3,79,76,74,29.91,29.79,6,2,6,0.00
2013-12-27,39.2,28.2,10.2,32.3,22.4,4.0,82,79,75,29.90,29.65,21,5,21,0.00
2013-12-28,43.5,29.4,15.8,37.4,23.9,10.0,84,80,74,29.79,29.38,40,8,40,0.07
2013-12-29,15.4,-2.4,-13.7,9.9,-10.2,-22.2,78,68,63,30.08,29.79,31,11,39,0.00
2013-12-30,5.9,-3.7,-14.4,-1.7,-11.4,-22.9,71,68,64,30.03,29.88,14,4,14,0.00
2013-12-31,2.8,-5.9,-10.8,-4.5,-13.5,-18.9,72,68,65,30.14,29.93,13,4,13,0.00
2014-1-1,1.8,-3.8,-10.7,-6.7,-11.9,-18.4,68,67,66,30.22,30.12,14,7,14,0.00
2014-1-2,0.7,-6.0,-13.0,-8.4,-14.7,-22.1,68,65,61,30.23,30.10,8,4,9,0.00